Main page
METAR-TAF:

METAR-TAF

Airports :

Baghdad International Airport

Baghdad, Iraq

latitude: 33-15-45N, longitude: 44-14-04E, elevation: 35 m

Current weather observation

The report was made 1 hour and 0 minutes ago, at 05:00 UTC
Wind 9 kt from the East/Southeast
Temperature 12°C
Humidity 88%
Pressure 1019 hPa
Visibility: 2100 m
mist

METAR: ORBI 060500Z 12009KT 4400 2100 BR NSC 12/10 Q1019 NOSIG

Time: 09:00 (06:00 UTC)

Forecast

The report was made 2 hours and 0 minutes ago, at 04:00 UTC
Forecast valid from 06 at 06 UTC to 07 at 06 UTC
Wind 10 kt from the East/Southeast
Visibility: 3000 m
Broken clouds at a height of 4000 ft
mist
Becoming
from 06 at 07 UTC to 06 at 09 UTC
Visibility: 7000 m
Temporary
from 06 at 14 UTC to 07 at 06 UTC
light rain
Probability 30% :
Temporary
from 06 at 18 UTC to 07 at 04 UTC
Few clouds at a height of 2500 ft, Cumulonimbus.
thunderstorm, (light) rain showers

TAF: ORBI 060400Z 0606/0706 12010KT 3000 BR BKN040 BECMG 0607/0609 7000 TEMPO 0614/0706 -RA PROB30 TEMPO 0618/0704 -TS SHRA FEW025CB

Weather observations and forecasts of more than 4000 airports (METAR and TAF reports).

The available stations are represented by yellow and red dots on the map.

Hover mouse over dot to see the name of the station.

Then click to see weather observations and forecasts.

To change the map : click on the green buttons with a black cross to zoom in, on the green button with a dash to zoom out, or on the green arrows for adjacent maps.


METAR-TAF: